Terminal Aerodrome Forecast
Issued by NWS Springfield, MO

Home | Current Version | Previous Version | Text Only | Print | Product List | Glossary On
Versions: 1 2 3 4 5 6 7 8 9 10 11 12 13 14
000
FTUS43 KSGF 011100
TAFSGF
TAF
KSGF 011120Z 0112/0212 15012KT P6SM SCT250
     FM011500 17013G18KT P6SM SCT050 BKN150
     FM020000 16012KT P6SM BKN050 OVC100 PROB30 0200/0206 3SM -TSRA
      BKN040CB=

USA.gov is the U.S. government's official web portal to all federal, state and local government web resources and services.